createdAt,value
2023-01-29T00:01:23.042Z,7.00
2023-01-29T00:03:50.975Z,5.85
2023-01-29T00:06:17.836Z,5.28
2023-01-29T00:08:47.067Z,7.90
2023-01-29T00:11:13.842Z,7.90
2023-01-29T00:13:40.524Z,7.60
2023-01-29T00:16:07.544Z,7.90
2023-01-29T00:18:37.616Z,6.13
2023-01-29T00:21:04.506Z,8.23
2023-01-29T00:23:31.174Z,9.47
2023-01-29T00:26:01.057Z,7.17
2023-01-29T00:28:27.740Z,7.70
2023-01-29T00:30:54.454Z,7.63
2023-01-29T00:33:21.237Z,9.02
2023-01-29T00:35:47.915Z,7.60
2023-01-29T00:38:14.901Z,7.88
2023-01-29T00:40:41.894Z,8.73
2023-01-29T00:43:09.900Z,7.35
2023-01-29T00:45:36.997Z,8.60
2023-01-29T00:48:03.956Z,8.70
2023-01-29T00:50:31.655Z,9.55
2023-01-29T00:52:58.478Z,9.82
2023-01-29T00:55:25.179Z,6.60
2023-01-29T00:57:51.838Z,8.80
2023-01-29T01:00:20.781Z,8.97
2023-01-29T01:02:47.582Z,9.65
2023-01-29T01:05:15.786Z,9.38
2023-01-29T01:07:42.529Z,7.90
2023-01-29T01:10:12.749Z,8.05
2023-01-29T01:12:39.498Z,8.67
2023-01-29T01:15:06.807Z,9.45
2023-01-29T01:17:34.807Z,9.20
2023-01-29T01:20:01.478Z,8.90
2023-01-29T01:22:28.215Z,7.57
2023-01-29T01:24:54.935Z,7.80
2023-01-29T01:27:21.594Z,8.95
2023-01-29T01:29:48.498Z,9.55
2023-01-29T01:32:15.337Z,9.77
2023-01-29T01:34:43.455Z,9.10
2023-01-29T01:37:10.183Z,8.77
2023-01-29T01:39:37.168Z,10.33
2023-01-29T01:42:04.132Z,9.43
2023-01-29T01:44:51.619Z,9.90
2023-01-29T01:47:22.495Z,9.95
2023-01-29T01:49:51.314Z,9.40
2023-01-29T01:52:19.083Z,8.90
2023-01-29T01:54:46.169Z,9.83
2023-01-29T01:57:15.855Z,9.55
2023-01-29T01:59:46.431Z,10.45
2023-01-29T02:02:14.265Z,9.80
2023-01-29T02:04:46.142Z,7.97
2023-01-29T02:07:15.744Z,8.70
2023-01-29T02:09:47.618Z,9.00
2023-01-29T02:12:16.888Z,9.77
2023-01-29T02:14:44.408Z,11.07
2023-01-29T02:17:14.741Z,8.73
2023-01-29T02:19:47.179Z,9.80
2023-01-29T02:22:29.739Z,11.40
2023-01-29T02:25:28.937Z,9.77
2023-01-29T02:28:22.046Z,9.63
2023-01-29T02:30:56.985Z,10.00
2023-01-29T02:33:32.604Z,10.87
2023-01-29T02:36:06.903Z,9.30
2023-01-29T02:38:40.247Z,10.30
2023-01-29T02:41:15.135Z,10.40
2023-01-29T02:43:47.431Z,12.43
2023-01-29T02:46:19.881Z,10.70
2023-01-29T02:48:56.908Z,9.53
2023-01-29T02:51:27.682Z,10.70
2023-01-29T02:54:03.484Z,9.83
2023-01-29T02:56:36.439Z,9.63
2023-01-29T02:59:08.720Z,10.20
2023-01-29T03:01:40.877Z,8.37
2023-01-29T03:04:11.054Z,9.93
2023-01-29T03:06:41.598Z,10.27
2023-01-29T03:09:13.060Z,9.83
2023-01-29T03:11:44.087Z,11.20
2023-01-29T03:14:16.245Z,11.37
2023-01-29T03:16:47.926Z,10.53
2023-01-29T03:19:19.272Z,10.10
2023-01-29T03:21:50.105Z,10.17
2023-01-29T03:24:20.153Z,10.30
2023-01-29T03:26:46.993Z,11.20
2023-01-29T03:29:15.115Z,10.40
2023-01-29T03:31:41.961Z,10.80
2023-01-29T03:34:12.667Z,11.53
2023-01-29T03:36:42.723Z,11.30
2023-01-29T03:39:09.757Z,9.13
2023-01-29T03:41:40.729Z,10.93
2023-01-29T03:44:16.004Z,11.40
2023-01-29T03:46:51.946Z,10.90
2023-01-29T03:49:30.042Z,9.57
2023-01-29T03:52:01.933Z,11.73
2023-01-29T03:54:37.986Z,12.03
2023-01-29T03:57:14.000Z,10.63
2023-01-29T03:59:49.915Z,10.60
2023-01-29T04:02:20.000Z,10.57
2023-01-29T04:04:49.296Z,12.40
2023-01-29T04:07:19.384Z,10.60
2023-01-29T04:09:49.886Z,10.70
2023-01-29T04:12:21.850Z,11.90
2023-01-29T04:14:53.504Z,10.47
2023-01-29T04:17:23.327Z,11.13
2023-01-29T04:19:50.231Z,10.10
2023-01-29T04:22:22.760Z,11.70
2023-01-29T04:24:50.059Z,11.33
2023-01-29T04:27:27.020Z,10.20
2023-01-29T04:30:02.969Z,9.03
2023-01-29T04:32:37.307Z,10.83
2023-01-29T04:35:19.994Z,11.77
2023-01-29T04:37:56.471Z,11.70
2023-01-29T04:40:29.606Z,10.90
2023-01-29T04:43:03.286Z,11.23
2023-01-29T04:45:40.159Z,9.80
2023-01-29T04:48:20.673Z,9.70
2023-01-29T04:50:53.595Z,10.90
2023-01-29T04:53:25.971Z,11.57
2023-01-29T04:55:58.488Z,10.17
2023-01-29T04:58:31.851Z,9.67
2023-01-29T05:01:02.072Z,11.00
2023-01-29T05:03:30.294Z,11.50
2023-01-29T05:06:00.145Z,10.73
2023-01-29T05:08:29.738Z,11.03
2023-01-29T05:10:58.794Z,10.13
2023-01-29T05:13:26.722Z,11.13
2023-01-29T05:16:02.096Z,10.60
2023-01-29T05:18:29.799Z,10.90
2023-01-29T05:20:57.268Z,11.87
2023-01-29T05:23:24.285Z,10.60
2023-01-29T05:25:51.761Z,10.60
2023-01-29T05:28:18.755Z,11.53
2023-01-29T05:30:47.826Z,10.80
2023-01-29T05:33:18.638Z,12.00
2023-01-29T05:35:46.252Z,10.55
2023-01-29T05:38:13.283Z,9.23
2023-01-29T05:40:40.365Z,10.57
2023-01-29T05:43:15.478Z,11.33
2023-01-29T05:45:42.311Z,10.23
2023-01-29T05:48:09.083Z,11.43
2023-01-29T05:50:37.175Z,10.20
2023-01-29T05:53:03.876Z,10.77
2023-01-29T05:55:30.559Z,9.97
2023-01-29T05:57:57.376Z,9.97
2023-01-29T06:00:24.386Z,10.90
2023-01-29T06:02:51.079Z,9.13
2023-01-29T06:05:17.829Z,10.03
2023-01-29T06:07:45.879Z,10.90
2023-01-29T06:10:14.869Z,9.17
2023-01-29T06:12:42.377Z,10.00
2023-01-29T06:15:10.002Z,9.70
2023-01-29T06:17:36.730Z,10.77
2023-01-29T06:20:04.548Z,11.83
2023-01-29T06:22:32.526Z,11.33
2023-01-29T06:25:00.555Z,10.40
2023-01-29T06:27:27.267Z,13.17
2023-01-29T06:29:57.153Z,10.50
2023-01-29T06:32:24.058Z,11.00
2023-01-29T06:34:57.936Z,11.50
2023-01-29T06:37:24.672Z,12.33
2023-01-29T06:39:51.351Z,12.67
2023-01-29T06:42:19.593Z,12.00
2023-01-29T06:44:46.259Z,10.68
2023-01-29T06:47:12.998Z,13.10
2023-01-29T06:49:39.643Z,11.40
2023-01-29T06:52:06.300Z,10.87
2023-01-29T06:54:33.209Z,11.40
2023-01-29T06:56:59.997Z,11.50
2023-01-29T06:59:28.185Z,13.45
2023-01-29T07:01:54.915Z,10.57
2023-01-29T07:04:21.571Z,11.13
2023-01-29T07:06:48.658Z,9.93
2023-01-29T07:09:15.440Z,11.07
2023-01-29T07:11:42.601Z,12.37
2023-01-29T07:14:09.464Z,9.13
2023-01-29T07:16:39.951Z,12.17
2023-01-29T07:19:06.771Z,10.70
2023-01-29T07:21:33.608Z,12.40
2023-01-29T07:24:00.362Z,11.77
2023-01-29T07:26:27.064Z,10.80
2023-01-29T07:28:54.413Z,11.20
2023-01-29T07:31:21.150Z,10.90
2023-01-29T07:33:49.177Z,12.97
2023-01-29T07:36:16.099Z,11.13
2023-01-29T07:38:42.879Z,11.43
2023-01-29T07:41:11.292Z,12.60
2023-01-29T07:43:37.956Z,11.37
2023-01-29T07:46:07.876Z,11.40
2023-01-29T07:48:36.781Z,10.13
2023-01-29T07:51:05.669Z,12.07
2023-01-29T07:53:32.600Z,11.40
2023-01-29T07:55:59.384Z,13.53
2023-01-29T07:58:26.201Z,12.80
2023-01-29T08:00:52.902Z,10.77
2023-01-29T08:03:20.034Z,12.87
2023-01-29T08:05:47.116Z,13.27
2023-01-29T08:08:15.469Z,9.30
2023-01-29T08:10:42.568Z,10.90
2023-01-29T08:13:09.992Z,11.03
2023-01-29T08:15:39.037Z,12.37
2023-01-29T08:18:06.173Z,12.10
2023-01-29T08:20:32.920Z,13.77
2023-01-29T08:23:00.984Z,15.30
2023-01-29T08:25:29.549Z,13.57
2023-01-29T08:27:57.905Z,11.73
2023-01-29T08:30:25.242Z,16.13
2023-01-29T08:32:51.960Z,13.77
2023-01-29T08:35:18.976Z,12.17
2023-01-29T08:37:53.113Z,16.47
2023-01-29T08:40:20.110Z,9.33
2023-01-29T08:42:48.312Z,12.27
2023-01-29T08:45:15.184Z,12.53
2023-01-29T08:47:45.628Z,12.57
2023-01-29T08:50:12.386Z,10.90
2023-01-29T08:52:39.076Z,15.13
2023-01-29T08:55:06.752Z,13.90
2023-01-29T08:57:33.450Z,13.40
2023-01-29T09:00:01.562Z,11.77
2023-01-29T09:02:28.344Z,12.30
2023-01-29T09:04:55.143Z,10.70
2023-01-29T09:07:21.868Z,13.10
2023-01-29T09:09:48.589Z,11.00
2023-01-29T09:12:15.286Z,11.90
2023-01-29T09:14:42.052Z,12.03
2023-01-29T09:17:10.182Z,11.67
2023-01-29T09:19:36.922Z,14.07
2023-01-29T09:22:03.626Z,12.40
2023-01-29T09:24:30.412Z,9.00
2023-01-29T09:26:57.142Z,14.67
2023-01-29T09:29:23.856Z,12.07
2023-01-29T09:31:50.664Z,12.40
2023-01-29T09:34:18.756Z,15.20
2023-01-29T09:36:45.542Z,13.13
2023-01-29T09:39:12.246Z,12.53
2023-01-29T09:41:49.850Z,13.03
2023-01-29T09:44:24.604Z,12.60
2023-01-29T09:46:53.835Z,10.40
2023-01-29T09:49:26.798Z,13.00
2023-01-29T09:51:58.691Z,11.33
2023-01-29T09:54:31.247Z,11.97
2023-01-29T09:56:58.383Z,13.27
2023-01-29T09:59:27.818Z,12.97
2023-01-29T10:02:05.769Z,10.03
2023-01-29T10:05:03.156Z,11.60
2023-01-29T10:07:46.922Z,11.87
2023-01-29T10:10:25.266Z,10.77
2023-01-29T10:13:06.761Z,12.43
2023-01-29T10:15:47.394Z,12.27
2023-01-29T10:18:47.360Z,10.03
2023-01-29T10:21:28.180Z,10.87
2023-01-29T10:24:04.115Z,9.40
2023-01-29T10:26:32.491Z,14.70
2023-01-29T10:29:01.310Z,12.70
2023-01-29T10:31:31.111Z,13.30
2023-01-29T10:34:03.107Z,12.37
2023-01-29T10:36:38.626Z,12.43
2023-01-29T10:39:05.513Z,12.47
2023-01-29T10:41:47.237Z,8.60
2023-01-29T10:44:34.436Z,11.27
2023-01-29T10:47:17.084Z,14.23
2023-01-29T10:50:00.745Z,14.23
2023-01-29T10:52:43.595Z,13.50
2023-01-29T10:55:28.510Z,10.43
2023-01-29T10:58:07.314Z,13.43
2023-01-29T11:00:37.674Z,11.97
2023-01-29T11:06:12.538Z,13.67
2023-01-29T11:08:46.647Z,13.57
2023-01-29T11:11:14.620Z,13.43
2023-01-29T11:13:47.287Z,12.40
2023-01-29T11:16:14.032Z,11.50
2023-01-29T11:18:52.980Z,11.57
2023-01-29T11:21:20.310Z,11.83
2023-01-29T11:23:48.501Z,10.90
2023-01-29T11:26:19.521Z,14.50
2023-01-29T11:28:47.732Z,12.53
2023-01-29T11:31:25.815Z,11.10
2023-01-29T11:34:01.127Z,12.70
2023-01-29T11:36:34.276Z,11.53
2023-01-29T11:39:17.167Z,12.37
2023-01-29T11:41:47.407Z,12.97
2023-01-29T11:44:22.151Z,10.87
2023-01-29T11:46:49.661Z,13.80
2023-01-29T11:49:27.456Z,11.20
2023-01-29T11:51:56.552Z,10.23
2023-01-29T11:54:30.917Z,12.37
2023-01-29T11:56:58.456Z,12.30
2023-01-29T11:59:37.719Z,11.47
2023-01-29T12:02:13.406Z,11.23
2023-01-29T12:04:40.661Z,10.43
2023-01-29T12:07:15.884Z,12.63
2023-01-29T12:09:49.311Z,12.47
2023-01-29T12:12:28.938Z,11.00
2023-01-29T12:15:18.566Z,11.90
2023-01-29T12:17:52.225Z,14.20
2023-01-29T12:20:25.355Z,10.70
2023-01-29T12:22:57.959Z,10.33
2023-01-29T12:25:36.447Z,13.90
2023-01-29T12:28:12.959Z,10.60
2023-01-29T12:30:48.622Z,10.60
2023-01-29T12:33:29.644Z,11.57
2023-01-29T12:36:06.017Z,11.90
2023-01-29T12:38:32.792Z,11.90
2023-01-29T12:41:07.801Z,9.63
2023-01-29T12:43:42.216Z,9.30
2023-01-29T12:46:16.860Z,11.07
2023-01-29T12:48:45.641Z,10.30
2023-01-29T12:51:15.138Z,11.77
2023-01-29T12:53:46.912Z,9.87
2023-01-29T12:56:23.422Z,9.70
2023-01-29T12:58:54.467Z,8.23
2023-01-29T13:01:28.933Z,8.40
2023-01-29T13:03:59.421Z,11.20
2023-01-29T13:06:31.740Z,10.47
2023-01-29T13:09:01.598Z,11.10
2023-01-29T13:11:35.218Z,8.40
2023-01-29T13:14:07.906Z,9.87
2023-01-29T13:16:40.809Z,9.93
2023-01-29T13:19:18.352Z,11.40
2023-01-29T13:21:45.825Z,10.00
2023-01-29T13:24:16.418Z,9.83
2023-01-29T13:26:47.646Z,10.87
2023-01-29T13:29:22.938Z,10.23
2023-01-29T13:31:50.812Z,11.67
2023-01-29T13:34:23.003Z,12.30
2023-01-29T13:36:52.908Z,12.40
2023-01-29T13:39:24.251Z,10.90
2023-01-29T13:41:53.867Z,10.93
2023-01-29T13:44:24.325Z,11.80
2023-01-29T13:46:56.109Z,10.97
2023-01-29T13:49:28.951Z,10.63
2023-01-29T13:51:56.831Z,10.47
2023-01-29T13:54:26.859Z,9.80
2023-01-29T13:57:02.022Z,12.77
2023-01-29T13:59:51.554Z,10.57
2023-01-29T14:02:24.650Z,10.50
2023-01-29T14:04:51.750Z,11.30
2023-01-29T14:07:50.308Z,9.20
2023-01-29T14:10:19.768Z,10.53
2023-01-29T14:12:50.746Z,10.27
2023-01-29T14:15:21.753Z,11.17
2023-01-29T14:18:25.712Z,10.50
2023-01-29T14:21:01.240Z,12.23
2023-01-29T14:23:45.125Z,9.73
2023-01-29T14:26:23.468Z,10.70
2023-01-29T14:29:00.701Z,10.73
2023-01-29T14:31:42.218Z,10.43
2023-01-29T14:34:18.661Z,11.57
2023-01-29T14:36:46.932Z,9.77
2023-01-29T14:39:33.859Z,10.33
2023-01-29T14:42:02.712Z,12.03
2023-01-29T14:45:09.688Z,11.23
2023-01-29T14:48:13.024Z,10.10
2023-01-29T14:50:50.926Z,10.63
2023-01-29T14:53:23.169Z,11.40
2023-01-29T14:55:55.819Z,9.83
2023-01-29T14:58:28.000Z,10.90
2023-01-29T15:00:58.568Z,10.40
2023-01-29T15:03:42.958Z,9.97
2023-01-29T15:06:17.804Z,9.80
2023-01-29T15:08:50.729Z,10.50
2023-01-29T15:11:25.599Z,9.70
2023-01-29T15:14:00.613Z,8.07
2023-01-29T15:16:34.102Z,10.13
2023-01-29T15:19:11.731Z,8.90
2023-01-29T15:21:38.429Z,8.10
2023-01-29T15:24:06.739Z,10.87
2023-01-29T15:26:35.784Z,10.73
2023-01-29T15:29:04.655Z,10.20
2023-01-29T15:31:34.810Z,9.40
2023-01-29T15:34:06.417Z,10.10
2023-01-29T15:36:33.688Z,10.37
2023-01-29T15:39:14.915Z,10.90
2023-01-29T15:41:42.688Z,10.50
2023-01-29T15:44:14.625Z,11.47
2023-01-29T15:46:45.411Z,10.80
2023-01-29T15:49:19.172Z,9.03
2023-01-29T15:51:46.382Z,11.77
2023-01-29T15:54:15.984Z,12.63
2023-01-29T15:56:46.178Z,10.83
2023-01-29T15:59:17.814Z,10.23
2023-01-29T16:01:46.093Z,11.47
2023-01-29T16:04:16.726Z,10.27
2023-01-29T16:06:44.883Z,6.90
2023-01-29T16:09:17.813Z,9.60
2023-01-29T16:11:45.294Z,9.23
2023-01-29T16:14:14.127Z,9.37
2023-01-29T16:16:41.612Z,10.10
2023-01-29T16:19:21.273Z,10.70
2023-01-29T16:21:53.271Z,10.97
2023-01-29T16:24:21.035Z,9.20
2023-01-29T16:26:50.248Z,12.77
2023-01-29T16:29:20.348Z,9.30
2023-01-29T16:31:48.900Z,9.40
2023-01-29T16:34:24.067Z,8.43
2023-01-29T16:36:52.828Z,6.80
2023-01-29T16:39:23.040Z,12.00
2023-01-29T16:42:19.878Z,9.13
2023-01-29T16:44:50.242Z,7.00
2023-01-29T16:47:26.863Z,7.50
2023-01-29T16:49:56.359Z,7.80
2023-01-29T16:52:26.107Z,7.87
2023-01-29T16:54:53.617Z,8.63
2023-01-29T16:57:24.694Z,7.70
2023-01-29T16:59:55.345Z,6.77
2023-01-29T17:02:26.394Z,7.90
2023-01-29T17:04:57.508Z,6.03
2023-01-29T17:07:24.489Z,7.43
2023-01-29T17:09:54.408Z,7.30
2023-01-29T17:12:23.924Z,7.37
2023-01-29T17:14:55.150Z,7.57
2023-01-29T17:17:21.972Z,5.80
2023-01-29T17:19:48.644Z,7.93
2023-01-29T17:22:16.695Z,6.77
2023-01-29T17:24:44.050Z,6.00
2023-01-29T17:27:18.814Z,6.97
2023-01-29T17:29:45.739Z,6.77
2023-01-29T17:32:12.479Z,6.80
2023-01-29T17:34:39.466Z,6.73
2023-01-29T17:37:06.353Z,5.90
2023-01-29T17:39:34.413Z,6.87
2023-01-29T17:42:01.224Z,6.00
2023-01-29T17:44:28.031Z,6.73
2023-01-29T17:46:54.760Z,7.27
2023-01-29T17:49:24.186Z,6.70
2023-01-29T17:51:51.583Z,6.73
2023-01-29T17:54:18.531Z,5.90
2023-01-29T17:56:46.851Z,7.40
2023-01-29T17:59:15.027Z,7.53
2023-01-29T18:01:42.013Z,7.87
2023-01-29T18:04:08.921Z,6.90
2023-01-29T18:06:36.089Z,5.87
2023-01-29T18:09:03.670Z,6.77
2023-01-29T18:11:30.422Z,6.37
2023-01-29T18:13:58.502Z,5.60
2023-01-29T18:16:28.013Z,6.30
2023-01-29T18:18:54.729Z,6.50
2023-01-29T18:21:21.514Z,7.10
2023-01-29T18:23:48.177Z,5.30
2023-01-29T18:26:16.603Z,7.57
2023-01-29T18:28:43.430Z,7.50
2023-01-29T18:31:13.157Z,6.63
2023-01-29T18:33:40.694Z,6.70
2023-01-29T18:36:08.543Z,7.57
2023-01-29T18:38:35.359Z,6.87
2023-01-29T18:41:06.606Z,6.80
2023-01-29T18:43:33.278Z,6.27
2023-01-29T18:46:00.001Z,6.67
2023-01-29T18:48:28.215Z,7.00
2023-01-29T18:50:55.192Z,8.07
2023-01-29T18:53:21.995Z,7.07
2023-01-29T18:55:54.812Z,6.33
2023-01-29T18:58:25.134Z,5.90
2023-01-29T19:01:00.422Z,6.60
2023-01-29T19:03:29.001Z,7.07
2023-01-29T19:06:00.889Z,6.50
2023-01-29T19:08:27.610Z,6.97
2023-01-29T19:10:54.297Z,7.13
2023-01-29T19:13:20.984Z,6.70
2023-01-29T19:15:47.709Z,6.87
2023-01-29T19:18:14.943Z,6.80
2023-01-29T19:20:43.014Z,7.97
2023-01-29T19:23:10.045Z,6.60
2023-01-29T19:25:37.423Z,7.43
2023-01-29T19:28:04.232Z,7.23
2023-01-29T19:30:31.046Z,8.60
2023-01-29T19:32:57.771Z,6.90
2023-01-29T19:35:24.710Z,7.10
2023-01-29T19:37:52.779Z,6.33
2023-01-29T19:40:19.847Z,6.90
2023-01-29T19:42:46.795Z,7.47
2023-01-29T19:45:13.645Z,7.13
2023-01-29T19:47:41.040Z,8.00
2023-01-29T19:50:08.914Z,7.17
2023-01-29T19:52:50.242Z,8.97
2023-01-29T19:55:19.938Z,7.80
2023-01-29T19:57:47.371Z,6.80
2023-01-29T20:00:14.861Z,7.43
2023-01-29T20:02:41.569Z,9.47
2023-01-29T20:05:08.698Z,7.60
2023-01-29T20:07:35.383Z,8.27
2023-01-29T20:10:02.060Z,7.97
2023-01-29T20:12:30.079Z,7.53
2023-01-29T20:14:56.770Z,8.07
2023-01-29T20:17:23.535Z,7.90
2023-01-29T20:19:50.289Z,8.77
2023-01-29T20:22:16.976Z,6.70
2023-01-29T20:24:43.692Z,6.70
2023-01-29T20:27:11.274Z,7.63
2023-01-29T20:29:39.601Z,7.13
2023-01-29T20:32:07.152Z,5.60
2023-01-29T20:34:33.875Z,8.13
2023-01-29T20:37:00.764Z,5.87
2023-01-29T20:39:27.509Z,8.37
2023-01-29T20:41:54.192Z,5.93
2023-01-29T20:44:20.881Z,7.90
2023-01-29T20:46:48.932Z,8.70
2023-01-29T20:49:15.597Z,7.93
2023-01-29T20:51:43.053Z,7.33
2023-01-29T20:54:09.764Z,7.10
2023-01-29T20:56:44.279Z,8.40
2023-01-29T20:59:13.373Z,7.87
2023-01-29T21:01:40.704Z,7.30
2023-01-29T21:04:09.108Z,6.53
2023-01-29T21:06:35.956Z,8.90
2023-01-29T21:09:02.865Z,4.67
2023-01-29T21:11:29.658Z,7.63
2023-01-29T21:13:56.332Z,10.07
2023-01-29T21:16:23.575Z,7.17
2023-01-29T21:18:50.259Z,8.83
2023-01-29T21:21:18.318Z,8.47
2023-01-29T21:23:44.987Z,7.40
2023-01-29T21:26:11.669Z,9.53
2023-01-29T21:28:38.388Z,7.43
2023-01-29T21:31:07.213Z,9.50
2023-01-29T21:33:34.262Z,7.50
2023-01-29T21:36:01.085Z,7.03
2023-01-29T21:38:29.235Z,4.53
2023-01-29T21:40:59.713Z,7.47
2023-01-29T21:43:26.476Z,10.00
2023-01-29T21:45:56.355Z,10.30
2023-01-29T21:48:23.460Z,8.87
2023-01-29T21:50:53.142Z,12.40
2023-01-29T21:53:19.932Z,10.07
2023-01-29T21:55:48.210Z,12.13
2023-01-29T21:58:14.941Z,11.70
2023-01-29T22:00:41.654Z,10.47
2023-01-29T22:03:08.409Z,12.67
2023-01-29T22:05:35.193Z,11.23
2023-01-29T22:08:01.928Z,11.93
2023-01-29T22:10:28.949Z,13.93
2023-01-29T22:12:59.157Z,7.47
2023-01-29T22:15:25.990Z,10.60
2023-01-29T22:17:52.684Z,12.43
2023-01-29T22:20:20.398Z,10.83
2023-01-29T22:22:47.219Z,11.63
2023-01-29T22:25:14.019Z,11.73
2023-01-29T22:27:40.852Z,11.67
2023-01-29T22:30:10.743Z,12.67
2023-01-29T22:32:37.480Z,12.63
2023-01-29T22:35:04.883Z,10.40
2023-01-29T22:37:31.632Z,13.13
2023-01-29T22:39:58.337Z,12.43
2023-01-29T22:42:25.099Z,11.67
2023-01-29T22:44:51.941Z,12.40
2023-01-29T22:47:19.989Z,12.27
2023-01-29T22:49:46.697Z,8.00
2023-01-29T22:52:13.385Z,10.50
2023-01-29T22:54:41.956Z,10.43
2023-01-29T22:57:10.342Z,11.80
2023-01-29T22:59:37.129Z,9.80
2023-01-29T23:02:04.216Z,13.90
2023-01-29T23:04:32.387Z,12.17
2023-01-29T23:06:59.133Z,8.17
2023-01-29T23:09:25.860Z,7.93
2023-01-29T23:11:52.569Z,11.60
2023-01-29T23:14:19.472Z,10.90
2023-01-29T23:16:46.181Z,11.23
2023-01-29T23:19:12.983Z,10.20
2023-01-29T23:21:41.098Z,10.97
2023-01-29T23:24:08.844Z,11.07
2023-01-29T23:26:35.828Z,12.30
2023-01-29T23:29:03.220Z,13.63
2023-01-29T23:31:30.241Z,12.23
2023-01-29T23:33:56.922Z,11.10
2023-01-29T23:36:23.681Z,12.97
2023-01-29T23:38:51.702Z,11.90
2023-01-29T23:41:18.467Z,13.37
2023-01-29T23:43:45.230Z,10.20
2023-01-29T23:46:11.963Z,11.70
2023-01-29T23:48:38.730Z,12.10
2023-01-29T23:51:05.796Z,11.70
2023-01-29T23:53:32.828Z,10.97
2023-01-29T23:56:02.526Z,10.70
2023-01-29T23:58:30.809Z,11.90
